Wesleyville, Canada
Current Conditions -  °F | °C
As of 8:00 PM on Tuesday 21 Oct 2014 (Local Time) from CYQX Reporting Station
Broken Clouds Broken Clouds  
Wind Chill: 42°   Ceiling: 4100
Heat Index: 46°   Visibility: 20mi
Dew Point: 39°   Wind: 9mph
Humidity: 76%   Direction: 270°W
Pressure: 30.14"   Gusts: 17mph
Location:  49.15°N, 53.58°W
Report Text: CYQX 212200Z 27008G15KT 20SM FEW030 BKN041 08/04 A3014 RMK SC1SC6 SLP213
Loading
Personal Weather Stations






























Interactive Weather Map
Tropical Storm Tracking
New forecast layout! Learn more

10-Day Weather Forecast

Advertisements
Track Severe Weather on mobile